createdAt,value
2022-10-05T00:04:13.778Z,7
2022-10-05T00:09:57.959Z,6.8
2022-10-05T00:15:41.308Z,6.7
2022-10-05T00:21:25.983Z,7.6
2022-10-05T00:27:14.506Z,7.5
2022-10-05T00:33:02.194Z,8.5
2022-10-05T00:38:45.795Z,7.1
2022-10-05T00:44:34.353Z,5.3
2022-10-05T00:50:28.905Z,7.5
2022-10-05T00:56:16.953Z,6.3
2022-10-05T01:02:03.461Z,5.3
2022-10-05T01:07:49.393Z,5.2
2022-10-05T01:13:36.763Z,7.4
2022-10-05T01:19:27.860Z,6
2022-10-05T01:25:19.871Z,8.2
2022-10-05T01:31:08.825Z,5.9
2022-10-05T01:36:58.278Z,6.2
2022-10-05T01:42:48.775Z,7.8
2022-10-05T01:48:37.618Z,6.8
2022-10-05T01:54:27.479Z,7.1
2022-10-05T02:00:12.022Z,5.5
2022-10-05T02:05:59.513Z,6.7
2022-10-05T02:11:44.964Z,5.4
2022-10-05T02:17:30.430Z,5.4
2022-10-05T02:23:16.797Z,5.1
2022-10-05T02:29:01.817Z,6.7
2022-10-05T02:34:45.860Z,5.2
2022-10-05T02:40:35.049Z,5.3
2022-10-05T02:46:22.172Z,4.1
2022-10-05T02:52:08.981Z,5.1
2022-10-05T02:57:56.919Z,5.3
2022-10-05T03:03:42.835Z,3.3
2022-10-05T03:09:29.768Z,5.4
2022-10-05T03:15:18.531Z,4.9
2022-10-05T03:21:07.307Z,4.1
2022-10-05T03:26:55.746Z,5.9
2022-10-05T03:32:44.153Z,5.3
2022-10-05T03:38:32.911Z,4.4
2022-10-05T03:44:27.244Z,5.8
2022-10-05T03:50:21.710Z,5.7
2022-10-05T03:56:08.874Z,4.3
2022-10-05T04:01:54.779Z,4.3
2022-10-05T04:07:42.098Z,7.8
2022-10-05T04:13:28.550Z,4.7
2022-10-05T04:19:15.548Z,3.5
2022-10-05T04:25:02.394Z,4.7
2022-10-05T04:30:48.863Z,3.8
2022-10-05T04:36:35.838Z,3.6
2022-10-05T04:42:24.186Z,3.8
2022-10-05T04:48:22.642Z,2.8
2022-10-05T04:54:11.388Z,6.6
2022-10-05T05:00:03.151Z,3.7
2022-10-05T05:06:16.726Z,3.7
2022-10-05T05:11:59.990Z,5.3
2022-10-05T05:17:50.638Z,2.9
2022-10-05T05:23:37.947Z,3
2022-10-05T05:29:24.103Z,3.1
2022-10-05T05:35:15.314Z,4.8
2022-10-05T05:41:02.884Z,4.1
2022-10-05T05:47:05.396Z,4.1
2022-10-05T05:52:52.366Z,3.5
2022-10-05T05:58:37.882Z,3.4
2022-10-05T06:04:24.922Z,4.5
2022-10-05T06:10:12.987Z,4.9
2022-10-05T06:15:58.270Z,6.9
2022-10-05T06:21:45.041Z,3.7
2022-10-05T06:27:37.207Z,5.6
2022-10-05T06:33:28.175Z,4.9
2022-10-05T06:39:31.148Z,5.9
2022-10-05T06:45:19.211Z,5.3
2022-10-05T06:51:06.966Z,5.6
2022-10-05T06:56:53.585Z,6.6
2022-10-05T07:02:41.579Z,5
2022-10-05T07:08:29.838Z,3.6
2022-10-05T07:14:23.145Z,4.2
2022-10-05T07:20:11.562Z,4.7
2022-10-05T07:25:59.704Z,4.8
2022-10-05T07:31:47.887Z,7.4
2022-10-05T07:37:35.864Z,5.2
2022-10-05T07:44:13.311Z,5.4
2022-10-05T07:49:36.825Z,4.6
2022-10-05T07:55:21.836Z,4.9
2022-10-05T08:01:10.824Z,6.9
2022-10-05T08:06:55.719Z,4.4
2022-10-05T08:12:43.843Z,5.8
2022-10-05T08:18:32.563Z,5.5
2022-10-05T08:24:22.046Z,4.9
2022-10-05T08:30:06.880Z,4.2
2022-10-05T08:35:54.124Z,5.5
2022-10-05T08:41:54.590Z,4.5
2022-10-05T08:47:57.863Z,3.9
2022-10-05T08:53:53.670Z,3.4
2022-10-05T08:59:51.252Z,3.1
2022-10-05T09:05:51.806Z,5.5
2022-10-05T09:11:38.486Z,5.2
2022-10-05T09:17:28.287Z,4.4
2022-10-05T09:23:15.721Z,5
2022-10-05T09:29:03.982Z,2.2
2022-10-05T09:35:04.180Z,3.6
2022-10-05T09:41:00.841Z,4
2022-10-05T09:46:55.301Z,2.2
2022-10-05T09:52:56.005Z,2.9
2022-10-05T09:58:56.220Z,4.1
2022-10-05T10:04:46.651Z,2.7
2022-10-05T10:10:41.183Z,2.9
2022-10-05T10:16:29.195Z,2.9
2022-10-05T10:22:29.438Z,2.5
2022-10-05T10:28:22.986Z,5.6
2022-10-05T10:34:12.275Z,6.2
2022-10-05T10:40:03.855Z,4.5
2022-10-05T10:45:59.423Z,4.3
2022-10-05T10:51:53.590Z,4.3
2022-10-05T10:57:42.961Z,2.8
2022-10-05T11:03:42.869Z,4.1
2022-10-05T11:09:34.215Z,3.4
2022-10-05T11:15:29.994Z,4.1
2022-10-05T11:21:28.374Z,4.6
2022-10-05T11:33:15.967Z,4.7
2022-10-05T11:39:25.382Z,2.8
2022-10-05T11:45:25.806Z,3.8
2022-10-05T11:51:31.948Z,3.7
2022-10-05T11:57:18.233Z,2.7
2022-10-05T12:03:13.543Z,2.3
2022-10-05T12:09:03.437Z,3.3
2022-10-05T12:14:54.690Z,2.3
2022-10-05T12:20:43.040Z,3.4
2022-10-05T12:26:28.595Z,3.3
2022-10-05T12:32:18.550Z,3.6
2022-10-05T12:38:04.386Z,2.2
2022-10-05T12:43:54.756Z,2.7
2022-10-05T12:49:45.350Z,2.9
2022-10-05T12:55:32.337Z,2.4
2022-10-05T13:01:20.559Z,4.6
2022-10-05T13:07:15.663Z,2.3
2022-10-05T13:13:03.883Z,2.6
2022-10-05T13:18:54.092Z,2.9
2022-10-05T13:24:40.591Z,3.8
2022-10-05T13:30:24.198Z,2.3
2022-10-05T13:36:14.175Z,2.8
2022-10-05T13:42:01.531Z,3.2
2022-10-05T13:47:49.847Z,3.1
2022-10-05T13:53:38.326Z,2.7
2022-10-05T13:59:27.126Z,3.3
2022-10-05T14:05:16.821Z,3
2022-10-05T14:10:59.923Z,1.8
2022-10-05T14:16:46.880Z,2.5
2022-10-05T14:22:30.189Z,2.3
2022-10-05T14:28:19.922Z,3.6
2022-10-05T14:34:08.688Z,1.9
2022-10-05T14:39:52.821Z,2.4
2022-10-05T14:45:36.252Z,2
2022-10-05T14:51:24.442Z,1.9
2022-10-05T14:57:16.502Z,2.2
2022-10-05T15:03:13.930Z,2.2
2022-10-05T15:09:18.662Z,3.9
2022-10-05T15:15:04.918Z,2.5
2022-10-05T15:20:52.819Z,4.2
2022-10-05T15:26:41.624Z,3.3
2022-10-05T15:32:30.157Z,3.5
2022-10-05T15:38:17.176Z,4.2
2022-10-05T15:44:07.476Z,2.3
2022-10-05T15:49:56.951Z,3.1
2022-10-05T15:55:44.482Z,4.8
2022-10-05T16:01:32.970Z,5.6
2022-10-05T16:07:21.023Z,9.1
2022-10-05T16:13:10.891Z,9.7
2022-10-05T16:18:58.874Z,10.7
2022-10-05T16:24:52.817Z,11
2022-10-05T16:30:41.165Z,7.3
2022-10-05T16:36:29.171Z,8.1
2022-10-05T16:42:17.251Z,6.4
2022-10-05T16:48:05.070Z,6.3
2022-10-05T16:53:53.786Z,6.9
2022-10-05T16:59:50.627Z,4.3
2022-10-05T17:05:41.435Z,5.9
2022-10-05T17:11:30.815Z,4.5
2022-10-05T17:17:31.334Z,5
2022-10-05T17:23:27.453Z,5.7
2022-10-05T17:29:16.716Z,3.5
2022-10-05T17:35:21.696Z,4.8
2022-10-05T17:41:16.453Z,5.5
2022-10-05T17:47:00.986Z,5.1
2022-10-05T17:52:44.964Z,5.3
2022-10-05T17:58:39.494Z,6.3
2022-10-05T18:04:28.014Z,3.9
2022-10-05T18:10:29.170Z,3.6
2022-10-05T18:16:13.550Z,5.1
2022-10-05T18:22:10.901Z,3.9
2022-10-05T18:28:01.469Z,4.6
2022-10-05T18:33:57.378Z,4.1
2022-10-05T18:39:52.890Z,6
2022-10-05T18:45:41.395Z,6.4
2022-10-05T18:51:30.756Z,5.5
2022-10-05T18:57:24.526Z,3.7
2022-10-05T19:03:12.533Z,4.9
2022-10-05T19:09:00.999Z,3.4
2022-10-05T19:14:49.149Z,4.2
2022-10-05T19:20:34.707Z,4.6
2022-10-05T19:26:25.389Z,5.4
2022-10-05T19:32:14.071Z,3.8
2022-10-05T19:38:02.964Z,3.4
2022-10-05T19:43:52.561Z,6.2
2022-10-05T19:49:43.167Z,5
2022-10-05T19:55:34.204Z,8.3
2022-10-05T20:01:22.625Z,4.4
2022-10-05T20:07:06.921Z,4.1
2022-10-05T20:12:56.507Z,3.9
2022-10-05T20:18:48.434Z,4.1
2022-10-05T20:24:32.035Z,3.8
2022-10-05T20:30:16.639Z,4.2
2022-10-05T20:35:59.905Z,4.8
2022-10-05T20:41:43.349Z,3.8
2022-10-05T20:47:26.835Z,4.8
2022-10-05T20:53:14.655Z,4.2
2022-10-05T20:58:58.323Z,4.1
2022-10-05T21:04:45.148Z,2.6
2022-10-05T21:10:28.365Z,2.7
2022-10-05T21:16:11.868Z,4.6
2022-10-05T21:21:55.148Z,3.7
2022-10-05T21:27:38.426Z,4.1
2022-10-05T21:33:21.767Z,3.4
2022-10-05T21:39:04.973Z,4.1
2022-10-05T21:44:48.374Z,4.2
2022-10-05T21:50:31.623Z,4.9
2022-10-05T21:56:16.704Z,4.3
2022-10-05T22:02:00.244Z,4.7
2022-10-05T22:07:43.559Z,3.7
2022-10-05T22:13:27.536Z,5.1
2022-10-05T22:19:15.226Z,5.6
2022-10-05T22:24:58.522Z,4.4
2022-10-05T22:30:42.314Z,4.3
2022-10-05T22:36:25.727Z,5.8
2022-10-05T22:42:09.063Z,5.1
2022-10-05T22:47:52.589Z,6.8
2022-10-05T22:53:35.812Z,9.8
2022-10-05T22:59:19.117Z,8.6
2022-10-05T23:05:02.215Z,8.2
2022-10-05T23:10:45.506Z,9.9
2022-10-05T23:16:31.084Z,7.9
2022-10-05T23:22:14.591Z,8.8
2022-10-05T23:27:58.031Z,9.7
2022-10-05T23:33:41.271Z,9.2
2022-10-05T23:39:25.303Z,7.4
2022-10-05T23:45:09.004Z,12.3
2022-10-05T23:50:52.122Z,9.9
2022-10-05T23:56:35.404Z,10.5
